createdAt,value
2017-10-25T00:02:20.467Z,13.70
2017-10-25T00:04:49.329Z,13.70
2017-10-25T00:07:18.572Z,13.70
2017-10-25T00:09:47.448Z,13.70
2017-10-25T00:12:15.931Z,13.80
2017-10-25T00:14:44.816Z,13.70
2017-10-25T00:17:13.675Z,13.70
2017-10-25T00:19:41.768Z,13.70
2017-10-25T00:22:10.648Z,13.70
2017-10-25T00:24:38.743Z,13.70
2017-10-25T00:27:08.367Z,13.70
2017-10-25T00:29:36.854Z,13.70
2017-10-25T00:32:04.957Z,13.70
2017-10-25T00:34:33.063Z,13.70
2017-10-25T00:37:01.171Z,13.70
2017-10-25T00:39:29.283Z,13.70
2017-10-25T00:41:57.379Z,13.70
2017-10-25T00:44:25.491Z,13.70
2017-10-25T00:46:53.656Z,13.70
2017-10-25T00:49:21.750Z,13.70
2017-10-25T00:51:50.975Z,13.60
2017-10-25T00:54:19.083Z,13.70
2017-10-25T00:56:47.952Z,13.70
2017-10-25T00:59:16.079Z,13.70
2017-10-25T01:01:44.172Z,13.70
2017-10-25T01:04:12.263Z,13.70
2017-10-25T01:06:40.363Z,13.60
2017-10-25T01:09:09.224Z,13.60
2017-10-25T01:11:37.336Z,13.60
2017-10-25T01:14:06.195Z,13.60
2017-10-25T01:16:34.295Z,13.70
2017-10-25T01:19:03.152Z,13.70
2017-10-25T01:21:31.259Z,13.60
2017-10-25T01:24:00.148Z,13.70
2017-10-25T01:26:29.736Z,13.70
2017-10-25T01:28:57.827Z,13.70
2017-10-25T01:31:26.712Z,13.70
2017-10-25T01:33:55.195Z,13.70
2017-10-25T01:36:24.056Z,13.70
2017-10-25T01:38:52.159Z,13.70
2017-10-25T01:41:21.030Z,13.70
2017-10-25T01:43:49.148Z,13.80
2017-10-25T01:46:17.239Z,13.70
2017-10-25T01:48:45.325Z,13.80
2017-10-25T01:51:14.197Z,13.80
2017-10-25T01:53:42.299Z,13.80
2017-10-25T01:56:10.392Z,13.80
2017-10-25T01:58:38.499Z,13.80
2017-10-25T02:01:08.107Z,13.70
2017-10-25T02:03:36.218Z,13.70
2017-10-25T02:08:34.467Z,13.80
2017-10-25T02:11:02.542Z,13.80
2017-10-25T02:13:31.399Z,13.80
2017-10-25T02:15:59.902Z,13.80
2017-10-25T02:18:28.754Z,13.70
2017-10-25T02:20:56.859Z,13.80
2017-10-25T02:23:26.454Z,13.70
2017-10-25T02:25:55.326Z,13.70
2017-10-25T02:28:23.419Z,13.70
2017-10-25T02:30:52.302Z,13.70
2017-10-25T02:33:20.391Z,13.70
2017-10-25T02:35:49.266Z,13.70
2017-10-25T02:38:17.744Z,13.70
2017-10-25T02:40:45.827Z,13.70
2017-10-25T02:43:14.699Z,13.70
2017-10-25T02:45:44.315Z,13.70
2017-10-25T02:48:12.399Z,13.70
2017-10-25T02:50:41.281Z,13.70
2017-10-25T02:53:10.875Z,13.70
2017-10-25T02:55:38.988Z,13.70
2017-10-25T03:00:36.447Z,13.70
2017-10-25T03:03:05.692Z,13.60
2017-10-25T03:05:34.914Z,13.70
2017-10-25T03:08:03.035Z,13.70
2017-10-25T03:10:31.127Z,13.70
2017-10-25T03:13:00.357Z,13.70
2017-10-25T03:15:28.460Z,13.70
2017-10-25T03:17:57.335Z,13.70
2017-10-25T03:20:25.410Z,13.70
2017-10-25T03:22:53.527Z,13.80
2017-10-25T03:25:21.614Z,13.80
2017-10-25T03:27:49.778Z,13.80
2017-10-25T03:30:17.883Z,13.70
2017-10-25T03:32:46.019Z,13.80
2017-10-25T03:35:14.089Z,13.70
2017-10-25T03:37:42.187Z,13.70
2017-10-25T03:40:10.287Z,13.80
2017-10-25T03:42:38.381Z,13.80
2017-10-25T03:45:07.246Z,13.70
2017-10-25T03:47:35.355Z,13.80
2017-10-25T03:50:04.235Z,13.80
2017-10-25T03:52:33.083Z,13.80
2017-10-25T03:55:01.203Z,13.80
2017-10-25T03:57:30.059Z,13.80
2017-10-25T03:59:59.668Z,13.80
2017-10-25T04:02:27.783Z,13.80
2017-10-25T04:04:56.632Z,13.70
2017-10-25T04:07:24.734Z,13.80
2017-10-25T04:09:53.591Z,13.80
2017-10-25T04:12:22.467Z,13.80
2017-10-25T04:14:50.578Z,13.80
2017-10-25T04:17:18.671Z,13.80
2017-10-25T04:19:47.547Z,13.80
2017-10-25T04:22:16.404Z,13.80
2017-10-25T04:24:45.651Z,13.80
2017-10-25T04:27:13.739Z,13.80
2017-10-25T04:29:41.854Z,13.80
2017-10-25T04:32:09.935Z,13.90
2017-10-25T04:34:38.031Z,13.90
2017-10-25T04:37:06.941Z,13.90
2017-10-25T04:39:35.023Z,13.90
2017-10-25T04:42:03.143Z,13.90
2017-10-25T04:44:31.227Z,13.90
2017-10-25T04:46:59.314Z,13.90
2017-10-25T04:49:28.187Z,14.00
2017-10-25T04:51:57.058Z,14.10
2017-10-25T04:54:25.146Z,14.20
2017-10-25T04:56:53.262Z,14.20
2017-10-25T04:59:22.119Z,14.20
2017-10-25T05:01:50.227Z,14.40
2017-10-25T05:04:19.869Z,14.40
2017-10-25T05:06:47.929Z,14.40
2017-10-25T05:09:16.139Z,14.40
2017-10-25T05:11:44.254Z,14.40
2017-10-25T05:14:12.343Z,14.40
2017-10-25T05:16:40.423Z,14.40
2017-10-25T05:19:08.535Z,14.30
2017-10-25T05:21:37.406Z,14.30
2017-10-25T05:24:07.011Z,14.30
2017-10-25T05:26:35.104Z,14.30
2017-10-25T05:29:03.206Z,14.30
2017-10-25T05:31:31.322Z,14.30
2017-10-25T05:33:59.412Z,14.20
2017-10-25T05:36:27.528Z,14.20
2017-10-25T05:38:55.618Z,14.20
2017-10-25T05:41:23.731Z,14.30
2017-10-25T05:43:52.234Z,14.30
2017-10-25T05:46:21.103Z,14.20
2017-10-25T05:48:49.232Z,14.20
2017-10-25T05:51:17.332Z,14.20
2017-10-25T05:53:45.443Z,14.10
2017-10-25T05:56:14.319Z,14.20
2017-10-25T05:58:42.432Z,14.20
2017-10-25T06:01:10.539Z,14.20
2017-10-25T06:03:38.627Z,14.10
2017-10-25T06:06:06.742Z,14.10
2017-10-25T06:08:34.831Z,14.10
2017-10-25T06:11:03.687Z,14.10
2017-10-25T06:13:32.561Z,14.10
2017-10-25T06:16:00.663Z,14.10
2017-10-25T06:18:30.265Z,14.10
2017-10-25T06:20:59.138Z,14.20
2017-10-25T06:23:27.254Z,14.20
2017-10-25T06:25:55.335Z,14.30
2017-10-25T06:28:23.438Z,14.30
2017-10-25T06:30:51.561Z,14.40
2017-10-25T06:33:20.419Z,14.50
2017-10-25T06:35:48.507Z,14.50
2017-10-25T06:38:17.374Z,14.50
2017-10-25T06:40:45.478Z,14.50
2017-10-25T06:43:14.334Z,14.50
2017-10-25T06:45:42.439Z,14.50
2017-10-25T06:48:10.542Z,14.40
2017-10-25T06:50:39.030Z,14.40
2017-10-25T06:53:07.134Z,14.40
2017-10-25T06:55:35.214Z,14.30
2017-10-25T06:58:03.303Z,14.30
2017-10-25T07:00:32.171Z,14.30
2017-10-25T07:03:00.254Z,14.30
2017-10-25T07:05:29.123Z,14.30
2017-10-25T07:07:57.203Z,14.20
2017-10-25T07:10:25.316Z,14.20
2017-10-25T07:12:54.138Z,14.30
2017-10-25T07:15:22.237Z,14.20
2017-10-25T07:17:50.310Z,14.20
2017-10-25T07:20:18.403Z,14.20
2017-10-25T07:22:47.270Z,14.20
2017-10-25T07:25:15.347Z,14.30
2017-10-25T07:27:43.456Z,14.30
2017-10-25T07:30:11.531Z,14.30
2017-10-25T07:32:39.607Z,14.40
2017-10-25T07:35:08.108Z,14.50
2017-10-25T07:37:36.178Z,14.50
2017-10-25T07:40:04.294Z,14.60
2017-10-25T07:42:32.374Z,14.60
2017-10-25T07:45:00.479Z,14.60
2017-10-25T07:47:28.574Z,14.60
2017-10-25T07:49:56.675Z,14.60
2017-10-25T07:52:24.778Z,14.70
2017-10-25T07:54:53.255Z,14.90
2017-10-25T07:57:21.726Z,14.90
2017-10-25T07:59:50.582Z,15.00
2017-10-25T08:02:18.664Z,14.90
2017-10-25T08:04:46.775Z,14.90
2017-10-25T08:07:14.889Z,14.80
2017-10-25T08:09:42.966Z,14.80
2017-10-25T08:12:11.077Z,14.70
2017-10-25T08:14:39.159Z,14.70
2017-10-25T08:17:07.999Z,14.70
2017-10-25T08:19:36.111Z,14.70
2017-10-25T08:22:04.186Z,14.70
2017-10-25T08:24:33.042Z,14.80
2017-10-25T08:27:01.623Z,14.80
2017-10-25T08:29:29.707Z,14.80
2017-10-25T08:31:58.552Z,14.80
2017-10-25T08:34:26.645Z,14.70
2017-10-25T08:36:55.496Z,14.80
2017-10-25T08:39:25.115Z,14.80
2017-10-25T08:41:53.196Z,14.80
2017-10-25T08:44:21.274Z,14.90
2017-10-25T08:46:49.391Z,14.90
2017-10-25T08:49:17.466Z,14.90
2017-10-25T08:51:45.547Z,15.00
2017-10-25T08:54:14.408Z,15.00
2017-10-25T08:56:42.521Z,15.00
2017-10-25T08:59:11.362Z,15.10
2017-10-25T09:01:39.447Z,15.10
2017-10-25T09:04:07.547Z,15.20
2017-10-25T09:06:35.627Z,15.20
2017-10-25T09:09:04.858Z,15.30
2017-10-25T09:11:33.706Z,15.40
2017-10-25T09:14:01.800Z,15.40
2017-10-25T09:16:30.658Z,15.50
2017-10-25T09:18:58.735Z,15.50
2017-10-25T09:21:26.840Z,15.60
2017-10-25T09:23:55.683Z,15.60
2017-10-25T09:26:24.284Z,15.70
2017-10-25T09:28:52.358Z,15.70
2017-10-25T09:31:20.447Z,15.70
2017-10-25T09:33:48.924Z,15.70
2017-10-25T09:36:17.795Z,15.80
2017-10-25T09:38:47.374Z,15.90
2017-10-25T09:41:15.451Z,15.90
2017-10-25T09:43:43.542Z,16.00
2017-10-25T09:46:11.635Z,16.30
2017-10-25T09:48:39.715Z,16.70
2017-10-25T09:51:08.563Z,17.10
2017-10-25T09:53:36.655Z,17.30
2017-10-25T09:56:04.763Z,17.50
2017-10-25T09:58:33.603Z,17.30
2017-10-25T10:01:01.682Z,17.20
2017-10-25T10:03:29.778Z,16.90
2017-10-25T10:05:58.238Z,16.90
2017-10-25T10:08:26.387Z,16.90
2017-10-25T10:10:54.468Z,16.80
2017-10-25T10:13:22.562Z,16.80
2017-10-25T10:15:50.727Z,16.80
2017-10-25T10:18:18.832Z,16.60
2017-10-25T10:20:47.675Z,16.60
2017-10-25T10:23:15.751Z,16.60
2017-10-25T10:25:43.846Z,16.50
2017-10-25T10:28:11.928Z,16.60
2017-10-25T10:30:40.028Z,16.60
2017-10-25T10:33:08.102Z,16.70
2017-10-25T10:35:36.946Z,16.70
2017-10-25T10:38:05.054Z,16.60
2017-10-25T10:40:33.887Z,16.60
2017-10-25T10:43:01.983Z,16.70
2017-10-25T10:45:30.054Z,16.80
2017-10-25T10:47:58.146Z,16.80
2017-10-25T10:50:27.023Z,16.90
2017-10-25T10:52:55.100Z,17.00
2017-10-25T10:55:23.947Z,17.20
2017-10-25T10:57:52.043Z,17.60
2017-10-25T11:00:20.118Z,17.80
2017-10-25T11:02:48.194Z,17.90
2017-10-25T11:05:18.936Z,18.10
2017-10-25T11:07:47.047Z,18.10
2017-10-25T11:12:46.003Z,17.90
2017-10-25T11:15:14.121Z,18.10
2017-10-25T11:17:42.955Z,18.70
2017-10-25T11:20:11.059Z,18.70
2017-10-25T11:22:39.140Z,18.80
2017-10-25T11:25:07.979Z,18.90
2017-10-25T11:27:36.088Z,19.60
2017-10-25T11:30:04.158Z,20.50
2017-10-25T11:32:32.259Z,21.30
2017-10-25T11:35:01.103Z,21.60
2017-10-25T11:37:29.210Z,22.60
2017-10-25T11:39:58.054Z,23.70
2017-10-25T11:42:26.132Z,24.00
2017-10-25T11:44:54.231Z,24.80
2017-10-25T11:47:22.332Z,24.50
2017-10-25T11:49:51.186Z,23.70
2017-10-25T11:52:19.258Z,22.70
2017-10-25T11:54:47.380Z,22.40
2017-10-25T11:57:15.472Z,22.90
2017-10-25T11:59:43.531Z,23.20
2017-10-25T12:02:11.615Z,23.10
2017-10-25T12:04:40.870Z,23.20
2017-10-25T12:07:09.740Z,22.60
2017-10-25T12:09:37.823Z,21.70
2017-10-25T12:12:05.910Z,20.80
2017-10-25T12:14:34.776Z,20.80
2017-10-25T12:17:02.847Z,21.30
2017-10-25T12:19:30.947Z,21.00
2017-10-25T12:21:59.815Z,21.90
2017-10-25T12:24:27.891Z,23.90
2017-10-25T12:26:55.982Z,24.40
2017-10-25T12:29:24.055Z,25.10
2017-10-25T12:31:52.890Z,25.50
2017-10-25T12:34:20.986Z,26.60
2017-10-25T12:36:49.482Z,25.80
2017-10-25T12:41:46.894Z,25.00
2017-10-25T12:44:14.987Z,24.80
2017-10-25T12:46:43.063Z,24.10
2017-10-25T12:49:11.154Z,25.10
2017-10-25T12:51:39.230Z,26.20
2017-10-25T12:54:07.330Z,27.30
2017-10-25T12:56:36.165Z,27.20
2017-10-25T12:59:05.386Z,27.20
2017-10-25T13:01:33.490Z,27.20
2017-10-25T13:04:02.323Z,27.40
2017-10-25T13:06:31.163Z,27.20
2017-10-25T13:09:00.010Z,26.90
2017-10-25T13:11:29.434Z,26.50
2017-10-25T13:16:32.471Z,24.80
2017-10-25T13:19:01.319Z,23.80
2017-10-25T13:21:29.398Z,23.10
2017-10-25T13:23:57.887Z,22.30
2017-10-25T13:26:25.969Z,21.80
2017-10-25T13:28:54.060Z,21.60
2017-10-25T13:31:22.899Z,21.70
2017-10-25T13:33:50.975Z,21.80
2017-10-25T13:36:19.074Z,22.20
2017-10-25T13:38:47.159Z,22.10
2017-10-25T13:41:16.366Z,21.90
2017-10-25T13:43:45.231Z,21.70
2017-10-25T13:46:13.323Z,21.40
2017-10-25T13:48:42.170Z,21.30
2017-10-25T13:51:10.254Z,21.20
2017-10-25T13:53:38.726Z,21.10
2017-10-25T13:56:06.827Z,21.10
2017-10-25T13:58:35.670Z,20.80
2017-10-25T14:01:03.738Z,20.60
2017-10-25T14:03:31.826Z,20.50
2017-10-25T14:06:01.063Z,20.30
2017-10-25T14:08:30.278Z,20.30
2017-10-25T14:10:59.135Z,20.30
2017-10-25T14:13:29.451Z,20.40
2017-10-25T14:15:57.527Z,20.40
2017-10-25T14:18:25.602Z,20.40
2017-10-25T14:20:53.697Z,20.30
2017-10-25T14:23:22.539Z,20.20
2017-10-25T14:25:50.648Z,20.10
2017-10-25T14:28:30.642Z,20.10
2017-10-25T14:30:59.146Z,20.10
2017-10-25T14:33:27.227Z,20.00
2017-10-25T14:35:56.066Z,19.80
2017-10-25T14:38:24.927Z,19.80
2017-10-25T14:40:53.002Z,19.70
2017-10-25T14:43:21.078Z,19.60
2017-10-25T14:45:49.176Z,19.60
2017-10-25T14:48:18.010Z,19.70
2017-10-25T14:50:46.131Z,19.50
2017-10-25T14:53:14.983Z,19.50
2017-10-25T14:55:43.054Z,19.50
2017-10-25T14:58:11.146Z,19.50
2017-10-25T15:00:39.229Z,19.40
2017-10-25T15:03:08.107Z,19.40
2017-10-25T15:05:36.579Z,19.30
2017-10-25T15:08:04.661Z,19.20
2017-10-25T15:10:32.750Z,19.20
2017-10-25T15:13:01.610Z,19.20
2017-10-25T15:15:29.682Z,19.10
2017-10-25T15:17:57.778Z,19.10
2017-10-25T15:20:26.618Z,19.00
2017-10-25T15:22:54.714Z,18.80
2017-10-25T15:25:22.795Z,18.80
2017-10-25T15:27:50.908Z,18.70
2017-10-25T15:30:18.995Z,18.50
2017-10-25T15:32:47.095Z,18.40
2017-10-25T15:35:15.570Z,18.20
2017-10-25T15:37:44.431Z,18.00
2017-10-25T15:40:12.527Z,18.00
2017-10-25T15:42:40.611Z,17.90
2017-10-25T15:45:08.687Z,17.80
2017-10-25T15:47:37.182Z,17.60
2017-10-25T15:50:05.260Z,17.50
2017-10-25T15:52:33.335Z,17.50
2017-10-25T15:55:01.428Z,17.40
2017-10-25T15:57:30.283Z,17.30
2017-10-25T15:59:58.395Z,17.30
2017-10-25T16:02:27.243Z,17.10
2017-10-25T16:04:55.343Z,17.00
2017-10-25T16:07:24.182Z,16.80
2017-10-25T16:09:52.259Z,16.60
2017-10-25T16:12:20.364Z,16.50
2017-10-25T16:14:48.435Z,16.40
2017-10-25T16:17:16.539Z,16.30
2017-10-25T16:19:45.171Z,16.10
2017-10-25T16:22:13.247Z,16.10
2017-10-25T16:24:42.860Z,16.00
2017-10-25T16:27:10.935Z,15.90
2017-10-25T16:29:39.070Z,15.80
2017-10-25T16:32:07.511Z,15.70
2017-10-25T16:34:36.375Z,15.70
2017-10-25T16:37:04.455Z,15.60
2017-10-25T16:39:32.558Z,15.50
2017-10-25T16:42:01.407Z,15.40
2017-10-25T16:44:29.487Z,15.40
2017-10-25T16:46:57.578Z,15.20
2017-10-25T16:49:26.423Z,15.20
2017-10-25T16:51:55.299Z,15.30
2017-10-25T16:54:23.384Z,15.20
2017-10-25T16:56:51.463Z,15.10
2017-10-25T16:59:19.546Z,15.10
2017-10-25T17:01:47.635Z,15.30
2017-10-25T17:04:15.719Z,15.10
2017-10-25T17:06:43.819Z,15.00
2017-10-25T17:09:11.890Z,14.80
2017-10-25T17:11:39.984Z,14.80
2017-10-25T17:14:08.055Z,14.70
2017-10-25T17:16:36.154Z,14.40
2017-10-25T17:19:04.231Z,14.40
2017-10-25T17:21:32.335Z,14.50
2017-10-25T17:24:01.175Z,14.40
2017-10-25T17:26:29.250Z,14.40
2017-10-25T17:28:57.345Z,14.50
2017-10-25T17:31:25.438Z,14.40
2017-10-25T17:33:54.299Z,14.50
2017-10-25T17:36:22.399Z,14.50
2017-10-25T17:38:51.238Z,14.40
2017-10-25T17:41:19.731Z,14.20
2017-10-25T17:43:47.810Z,14.10
2017-10-25T17:46:15.914Z,14.10
2017-10-25T17:51:13.769Z,14.00
2017-10-25T17:53:41.870Z,13.90
2017-10-25T17:56:10.708Z,13.90
2017-10-25T17:58:38.782Z,13.90
2017-10-25T18:01:06.875Z,13.90
2017-10-25T18:03:35.718Z,13.90
2017-10-25T18:06:03.816Z,13.90
2017-10-25T18:08:31.903Z,13.90
2017-10-25T18:11:00.008Z,13.90
2017-10-25T18:13:28.083Z,13.90
2017-10-25T18:15:56.951Z,13.90
2017-10-25T18:18:26.250Z,13.80
2017-10-25T18:20:54.326Z,13.90
2017-10-25T18:23:22.407Z,13.80
2017-10-25T18:25:50.907Z,13.80
2017-10-25T18:28:19.735Z,13.80
2017-10-25T18:30:47.843Z,13.80
2017-10-25T18:33:15.979Z,13.90
2017-10-25T18:35:44.063Z,13.90
2017-10-25T18:38:12.163Z,13.90
2017-10-25T18:40:40.242Z,13.90
2017-10-25T18:43:08.759Z,13.90
2017-10-25T18:45:36.844Z,14.00
2017-10-25T18:48:04.931Z,14.10
2017-10-25T18:50:33.044Z,14.10
2017-10-25T18:53:01.132Z,14.20
2017-10-25T18:55:30.732Z,14.20
2017-10-25T18:57:59.581Z,14.30
2017-10-25T19:00:27.690Z,14.30
2017-10-25T19:02:56.547Z,14.40
2017-10-25T19:05:24.620Z,14.50
2017-10-25T19:07:52.719Z,14.50
2017-10-25T19:10:20.827Z,14.60
2017-10-25T19:12:50.368Z,14.60
2017-10-25T19:15:18.615Z,14.60
2017-10-25T19:17:46.971Z,14.70
2017-10-25T19:20:15.684Z,14.70
2017-10-25T19:22:44.037Z,14.60
2017-10-25T19:25:12.309Z,14.70
2017-10-25T19:27:40.607Z,14.70
2017-10-25T19:32:38.936Z,14.50
2017-10-25T19:35:07.287Z,14.50
2017-10-25T19:37:35.602Z,14.50
2017-10-25T19:40:05.179Z,14.50
2017-10-25T19:42:33.501Z,14.50
2017-10-25T19:45:03.334Z,14.50
2017-10-25T19:47:31.685Z,14.50
2017-10-25T19:49:59.775Z,14.40
2017-10-25T19:52:27.870Z,14.40
2017-10-25T19:54:55.950Z,14.50
2017-10-25T19:57:24.824Z,14.50
2017-10-25T19:59:54.409Z,14.50
2017-10-25T20:02:22.520Z,14.50
2017-10-25T20:04:50.602Z,14.50
2017-10-25T20:07:19.863Z,14.50
2017-10-25T20:09:47.949Z,14.50
2017-10-25T20:12:16.796Z,14.50
2017-10-25T20:14:44.892Z,14.50
2017-10-25T20:17:13.003Z,14.50
2017-10-25T20:19:41.103Z,14.60
2017-10-25T20:22:09.208Z,14.60
2017-10-25T20:24:37.293Z,14.60
2017-10-25T20:27:05.785Z,14.60
2017-10-25T20:29:34.670Z,14.60
2017-10-25T20:32:03.535Z,14.60
2017-10-25T20:34:31.629Z,14.60
2017-10-25T20:37:01.246Z,14.60
2017-10-25T20:39:30.121Z,14.80
2017-10-25T20:41:58.202Z,14.90
2017-10-25T20:44:27.051Z,14.90
2017-10-25T20:46:55.264Z,14.90
2017-10-25T20:49:23.349Z,15.00
2017-10-25T20:51:51.418Z,15.00
2017-10-25T20:54:20.398Z,15.10
2017-10-25T20:56:48.959Z,15.20
2017-10-25T20:59:17.832Z,15.00
2017-10-25T21:01:45.914Z,14.90
2017-10-25T21:04:14.009Z,14.80
2017-10-25T21:06:42.100Z,14.60
2017-10-25T21:09:10.199Z,14.60
2017-10-25T21:11:38.687Z,14.70
2017-10-25T21:14:06.772Z,14.80
2017-10-25T21:16:34.883Z,14.80
2017-10-25T21:19:02.968Z,14.90
2017-10-25T21:21:31.847Z,14.80
2017-10-25T21:23:59.922Z,14.50
2017-10-25T21:26:28.011Z,14.50
2017-10-25T21:28:56.107Z,14.50
2017-10-25T21:31:24.193Z,14.60
2017-10-25T21:33:52.288Z,14.30
2017-10-25T21:36:20.408Z,14.10
2017-10-25T21:38:48.503Z,14.00
2017-10-25T21:41:16.601Z,14.00
2017-10-25T21:43:45.479Z,14.00
2017-10-25T21:46:13.558Z,13.80
2017-10-25T21:48:41.648Z,13.70
2017-10-25T21:51:09.748Z,13.60
2017-10-25T21:53:38.611Z,13.60
2017-10-25T21:56:06.713Z,13.60
2017-10-25T21:58:35.604Z,13.50
2017-10-25T22:01:04.083Z,13.50
2017-10-25T22:03:32.928Z,13.60
2017-10-25T22:06:01.027Z,13.70
2017-10-25T22:08:29.117Z,13.80
2017-10-25T22:10:57.979Z,13.80
2017-10-25T22:13:26.063Z,13.80
2017-10-25T22:15:54.170Z,13.40
2017-10-25T22:18:22.253Z,13.40
2017-10-25T22:20:50.332Z,13.30
2017-10-25T22:23:18.491Z,13.20
2017-10-25T22:25:46.575Z,13.20
2017-10-25T22:28:14.655Z,13.20
2017-10-25T22:30:42.763Z,13.10
2017-10-25T22:33:10.859Z,13.10
2017-10-25T22:35:39.343Z,13.20
2017-10-25T22:38:08.212Z,12.90
2017-10-25T22:40:36.291Z,12.80
2017-10-25T22:43:04.390Z,12.70
2017-10-25T22:45:32.471Z,12.70
2017-10-25T22:48:01.719Z,12.50
2017-10-25T22:50:29.787Z,12.30
2017-10-25T22:52:58.663Z,12.40
2017-10-25T22:55:26.754Z,12.30
2017-10-25T22:57:54.822Z,12.50
2017-10-25T23:00:24.056Z,12.70
2017-10-25T23:02:52.138Z,12.60
2017-10-25T23:05:21.006Z,12.40
2017-10-25T23:07:49.504Z,12.50
2017-10-25T23:10:17.572Z,12.30
2017-10-25T23:12:46.447Z,12.10
2017-10-25T23:15:15.291Z,11.90
2017-10-25T23:17:45.066Z,12.00
2017-10-25T23:22:43.255Z,12.30
2017-10-25T23:25:11.377Z,12.30
2017-10-25T23:27:39.476Z,11.90
2017-10-25T23:30:08.716Z,11.80
2017-10-25T23:32:37.635Z,12.10
2017-10-25T23:35:05.738Z,12.30
2017-10-25T23:37:35.373Z,12.40
2017-10-25T23:40:03.855Z,12.10
2017-10-25T23:42:32.742Z,12.20
2017-10-25T23:45:01.262Z,12.10
2017-10-25T23:47:29.351Z,11.90
2017-10-25T23:49:58.220Z,12.00
2017-10-25T23:52:27.472Z,12.00
2017-10-25T23:54:55.573Z,12.10
2017-10-25T23:57:24.820Z,12.30
2017-10-25T23:59:52.907Z,12.30
